Time;durP1;ratioP1;P1;durP2;ratioP2;P2;SDS_P1;SDS_P2;PMS_P1;PMS_P2;Temp;Humidity;BMP_temperature;BMP_pressure;BME280_temperature;BME280_humidity;BME280_pressure;Samples;Min_cycle;Max_cycle;Signal;HPM_P1;HPM_P2
2022/04/24 00:01:24;;;;;;;13.37;7.00;;;15.60;75.90;;;;;;5041189;28;20202;-71
2022/04/24 00:03:53;;;;;;;12.83;7.93;;;15.50;75.80;;;;;;5038653;28;20218;-73
2022/04/24 00:06:23;;;;;;;12.70;7.07;;;15.40;75.80;;;;;;5041183;28;20200;-71
2022/04/24 00:08:52;;;;;;;15.20;7.10;;;15.50;75.90;;;;;;5040518;28;20190;-72
2022/04/24 00:11:20;;;;;;;13.13;6.83;;;15.40;75.80;;;;;;5040361;28;20199;-72
2022/04/24 00:13:50;;;;;;;14.27;7.60;;;15.40;75.90;;;;;;5042007;28;20222;-73
2022/04/24 00:16:18;;;;;;;13.40;7.33;;;15.30;75.90;;;;;;5042033;28;20203;-72
2022/04/24 00:18:47;;;;;;;12.93;8.73;;;15.30;76.00;;;;;;5039418;28;20202;-73
2022/04/24 00:21:15;;;;;;;12.07;7.67;;;15.20;76.10;;;;;;5042235;28;20192;-72
2022/04/24 00:23:43;;;;;;;16.67;8.77;;;15.20;76.20;;;;;;5040972;28;20188;-73
2022/04/24 00:26:12;;;;;;;14.07;8.33;;;15.20;76.30;;;;;;5041248;28;20257;-72
2022/04/24 00:28:40;;;;;;;13.60;8.30;;;15.10;76.30;;;;;;5041717;28;20203;-71
2022/04/24 00:31:10;;;;;;;15.43;8.83;;;15.00;76.50;;;;;;5040287;28;20196;-71
2022/04/24 00:33:38;;;;;;;12.33;8.47;;;15.00;76.60;;;;;;5040962;28;20310;-71
2022/04/24 00:36:07;;;;;;;14.80;8.00;;;15.00;76.60;;;;;;5043108;28;21008;-73
2022/04/24 00:38:36;;;;;;;16.33;8.77;;;14.90;76.70;;;;;;5041428;28;21133;-72
2022/04/24 00:41:05;;;;;;;17.00;8.83;;;14.90;76.90;;;;;;5041534;28;20286;-72
2022/04/24 00:43:33;;;;;;;18.23;8.87;;;14.80;77.20;;;;;;5041281;28;20199;-71
2022/04/24 00:46:12;;;;;;;15.27;8.00;;;14.80;77.00;;;;;;5039423;28;20205;-72
2022/04/24 00:48:42;;;;;;;16.57;8.80;;;14.80;77.20;;;;;;5038546;28;20201;-72
2022/04/24 00:51:11;;;;;;;14.83;8.70;;;14.70;77.20;;;;;;5042057;28;20185;-72
2022/04/24 00:53:40;;;;;;;17.00;9.03;;;14.70;77.30;;;;;;5041126;28;20239;-72
2022/04/24 00:56:09;;;;;;;12.93;8.53;;;14.60;77.40;;;;;;5040034;28;20193;-72
2022/04/24 00:58:37;;;;;;;12.93;8.53;;;14.60;77.70;;;;;;5035989;28;20202;-72
2022/04/24 01:01:06;;;;;;;15.17;9.33;;;14.60;77.80;;;;;;5040190;28;20194;-72
2022/04/24 01:03:36;;;;;;;14.27;9.07;;;14.50;77.80;;;;;;5039462;28;20645;-72
2022/04/24 01:06:05;;;;;;;16.50;8.97;;;14.50;78.00;;;;;;5039387;28;20189;-73
2022/04/24 01:08:35;;;;;;;17.03;11.07;;;14.50;78.10;;;;;;5039507;28;20195;-72
2022/04/24 01:11:05;;;;;;;20.07;10.97;;;14.40;78.50;;;;;;5039772;28;20376;-73
2022/04/24 01:13:34;;;;;;;18.40;11.43;;;14.30;78.70;;;;;;5038730;28;20223;-73
2022/04/24 01:16:02;;;;;;;20.83;11.50;;;14.30;78.90;;;;;;5035809;28;20203;-73
2022/04/24 01:18:32;;;;;;;23.47;11.90;;;14.30;79.10;;;;;;5040501;28;20241;-73
2022/04/24 01:21:09;;;;;;;16.90;10.73;;;14.30;79.20;;;;;;5039983;28;20191;-73
2022/04/24 01:23:39;;;;;;;16.40;9.97;;;14.30;79.20;;;;;;5040687;28;20195;-73
2022/04/24 01:26:07;;;;;;;15.87;10.50;;;14.20;79.00;;;;;;5037143;28;20467;-71
2022/04/24 01:28:36;;;;;;;18.60;10.13;;;14.20;79.10;;;;;;5040651;28;20338;-72
2022/04/24 01:31:05;;;;;;;17.57;9.80;;;14.20;79.20;;;;;;5040868;28;20195;-73
2022/04/24 01:33:36;;;;;;;14.63;9.50;;;14.10;79.40;;;;;;5039097;28;20219;-72
2022/04/24 01:36:05;;;;;;;18.80;10.00;;;14.10;79.50;;;;;;5039979;28;20543;-72
2022/04/24 01:38:34;;;;;;;15.13;9.70;;;14.10;79.50;;;;;;5042067;28;20202;-75
2022/04/24 01:41:03;;;;;;;15.20;9.30;;;14.10;79.50;;;;;;5042059;28;20202;-73
2022/04/24 01:43:31;;;;;;;16.40;9.50;;;14.00;79.60;;;;;;5040317;28;20194;-76
2022/04/24 01:45:59;;;;;;;14.07;8.90;;;14.00;79.90;;;;;;5042595;28;20285;-73
2022/04/24 01:48:28;;;;;;;14.53;9.27;;;14.00;80.10;;;;;;5042214;28;20186;-72
2022/04/24 01:50:56;;;;;;;18.07;10.03;;;14.00;80.20;;;;;;5042441;28;20908;-72
2022/04/24 01:53:24;;;;;;;18.30;9.43;;;13.90;80.60;;;;;;5040782;28;20235;-72
2022/04/24 01:55:54;;;;;;;15.53;9.43;;;13.90;81.00;;;;;;5041304;28;20206;-72
2022/04/24 01:58:22;;;;;;;13.80;8.23;;;13.90;81.00;;;;;;5035913;28;20202;-73
2022/04/24 02:00:51;;;;;;;12.23;8.13;;;13.90;80.90;;;;;;5039942;28;20989;-72
2022/04/24 02:03:19;;;;;;;13.17;8.40;;;13.80;80.80;;;;;;5037843;28;20191;-72
2022/04/24 02:05:49;;;;;;;13.17;7.97;;;13.80;80.70;;;;;;5039414;28;20225;-73
2022/04/24 02:08:17;;;;;;;13.13;7.73;;;13.90;80.90;;;;;;5035668;28;20199;-72
2022/04/24 02:10:46;;;;;;;12.90;8.52;;;13.80;80.70;;;;;;5037358;28;20451;-73
2022/04/24 02:13:15;;;;;;;15.97;8.60;;;13.80;81.90;;;;;;5038742;28;20210;-72
2022/04/24 02:15:45;;;;;;;17.00;7.60;;;13.80;81.60;;;;;;5040112;28;20205;-72
2022/04/24 02:18:13;;;;;;;14.47;7.97;;;13.80;81.40;;;;;;5040683;28;20721;-71
2022/04/24 02:20:42;;;;;;;10.20;7.37;;;13.80;81.50;;;;;;5039723;28;20191;-72
2022/04/24 02:23:10;;;;;;;12.17;8.70;;;13.80;81.60;;;;;;5038004;28;20374;-71
2022/04/24 02:25:39;;;;;;;15.63;8.93;;;13.80;81.50;;;;;;5036759;28;20218;-72
2022/04/24 02:28:07;;;;;;;14.90;8.03;;;13.80;81.40;;;;;;5040131;28;20194;-71
2022/04/24 02:30:37;;;;;;;13.83;8.30;;;13.80;81.30;;;;;;5038303;28;20236;-74
2022/04/24 02:33:06;;;;;;;13.03;8.47;;;13.70;81.10;;;;;;5038017;28;20263;-73
2022/04/24 02:35:34;;;;;;;14.13;9.13;;;13.70;81.20;;;;;;5037521;28;20954;-74
2022/04/24 02:38:03;;;;;;;11.57;8.27;;;13.70;81.40;;;;;;5035540;28;20190;-72
2022/04/24 02:40:31;;;;;;;13.20;9.27;;;13.70;81.40;;;;;;5036728;28;20184;-73
2022/04/24 02:42:59;;;;;;;15.17;8.80;;;13.60;81.50;;;;;;5039108;28;20713;-72
2022/04/24 02:45:28;;;;;;;17.30;9.17;;;13.60;81.50;;;;;;5039513;28;20226;-72
2022/04/24 02:47:57;;;;;;;13.90;9.23;;;13.60;81.50;;;;;;5038484;28;20213;-74
2022/04/24 02:50:26;;;;;;;20.73;9.30;;;13.60;81.50;;;;;;5038503;28;20195;-72
2022/04/24 02:52:56;;;;;;;14.40;8.90;;;13.60;81.50;;;;;;5037771;28;20575;-71
2022/04/24 02:55:25;;;;;;;13.43;9.33;;;13.50;81.40;;;;;;5037600;28;20226;-71
2022/04/24 02:57:55;;;;;;;15.33;9.30;;;13.50;81.40;;;;;;5037432;28;20194;-71
2022/04/24 03:00:24;;;;;;;14.13;9.00;;;13.50;81.40;;;;;;5039030;28;20525;-71
2022/04/24 03:02:54;;;;;;;14.30;9.20;;;13.50;81.50;;;;;;5036408;28;20929;-71
2022/04/24 03:05:25;;;;;;;15.37;8.83;;;13.50;81.50;;;;;;5039456;28;20206;-73
2022/04/24 03:07:53;;;;;;;12.87;9.17;;;13.40;81.30;;;;;;5036404;28;20812;-71
2022/04/24 03:10:21;;;;;;;17.73;9.00;;;13.40;81.40;;;;;;5037436;28;20198;-72
2022/04/24 03:12:50;;;;;;;14.67;9.37;;;13.40;81.30;;;;;;5041515;28;20199;-71
2022/04/24 03:15:18;;;;;;;16.00;9.43;;;13.40;81.40;;;;;;5042313;28;20769;-71
2022/04/24 03:17:47;;;;;;;15.43;9.47;;;13.40;81.40;;;;;;5041948;28;20195;-72
2022/04/24 03:20:15;;;;;;;12.77;8.50;;;13.40;81.30;;;;;;5042236;28;20210;-72
2022/04/24 03:22:45;;;;;;;15.40;9.90;;;13.40;81.40;;;;;;5042794;28;20203;-71
2022/04/24 03:25:13;;;;;;;15.00;9.43;;;13.30;81.30;;;;;;5042216;28;20210;-71
2022/04/24 03:27:41;;;;;;;17.60;9.80;;;13.30;81.30;;;;;;5040439;28;20265;-73
2022/04/24 03:30:10;;;;;;;15.37;9.47;;;13.30;81.50;;;;;;5043958;28;20544;-73
2022/04/24 03:32:39;;;;;;;15.60;9.97;;;13.30;81.50;;;;;;5040561;28;20233;-72
2022/04/24 03:35:09;;;;;;;15.60;9.43;;;13.30;81.50;;;;;;5040839;28;20214;-72
2022/04/24 03:37:38;;;;;;;15.40;9.20;;;13.30;81.50;;;;;;5041082;28;20729;-71
2022/04/24 03:40:09;;;;;;;17.00;10.10;;;13.30;81.50;;;;;;5041782;28;20571;-74
2022/04/24 03:42:37;;;;;;;15.57;10.63;;;13.30;81.60;;;;;;5040357;28;20205;-73
2022/04/24 03:45:11;;;;;;;14.33;9.40;;;13.30;81.60;;;;;;5044203;28;20195;-72
2022/04/24 03:47:40;;;;;;;18.43;10.17;;;13.20;81.50;;;;;;4991961;28;20199;-72
2022/04/24 03:50:10;;;;;;;14.43;9.30;;;13.20;81.50;;;;;;5043862;28;20265;-71
2022/04/24 03:52:38;;;;;;;14.63;10.00;;;13.30;81.60;;;;;;5040338;28;20218;-72
2022/04/24 03:55:09;;;;;;;16.77;10.00;;;13.20;81.50;;;;;;5041536;28;20227;-71
2022/04/24 03:57:38;;;;;;;14.13;9.90;;;13.20;81.60;;;;;;5039287;28;20198;-74
2022/04/24 04:00:08;;;;;;;15.00;9.53;;;13.30;81.80;;;;;;5041258;28;20194;-72
2022/04/24 04:02:43;;;;;;;15.03;9.10;;;13.30;81.90;;;;;;5041791;28;20218;-72
2022/04/24 04:05:12;;;;;;;14.87;10.47;;;13.30;81.90;;;;;;5041945;28;21070;-71
2022/04/24 04:07:41;;;;;;;21.33;11.60;;;13.30;81.90;;;;;;5040737;28;20222;-71
2022/04/24 04:10:11;;;;;;;25.50;12.37;;;13.30;82.00;;;;;;5043344;28;20198;-71
2022/04/24 04:12:39;;;;;;;27.17;12.10;;;13.30;82.00;;;;;;5040766;28;20206;-72
2022/04/24 04:15:09;;;;;;;20.17;12.00;;;13.40;82.10;;;;;;5042382;28;20222;-71
2022/04/24 04:17:37;;;;;;;21.80;12.20;;;13.40;82.10;;;;;;5041273;28;20186;-71
2022/04/24 04:20:11;;;;;;;20.30;11.40;;;13.50;82.20;;;;;;5043626;28;20195;-71
2022/04/24 04:22:48;;;;;;;21.20;11.30;;;13.50;82.20;;;;;;5041172;28;20308;-71
2022/04/24 04:25:18;;;;;;;21.37;11.33;;;13.60;82.30;;;;;;5044389;28;20203;-72
2022/04/24 04:27:46;;;;;;;22.67;11.83;;;13.60;82.20;;;;;;5042025;28;20195;-71
2022/04/24 04:30:15;;;;;;;17.17;10.57;;;13.60;82.30;;;;;;5043549;28;20187;-71
2022/04/24 04:32:43;;;;;;;17.10;11.23;;;13.70;82.40;;;;;;5041363;28;20210;-71
2022/04/24 04:35:12;;;;;;;21.73;12.03;;;13.70;82.40;;;;;;5042017;28;20222;-72
2022/04/24 04:37:41;;;;;;;21.23;10.83;;;13.70;82.40;;;;;;5042530;28;20199;-72
2022/04/24 04:40:11;;;;;;;21.43;11.40;;;13.80;82.50;;;;;;5042940;28;20199;-73
2022/04/24 04:42:41;;;;;;;18.53;10.30;;;13.80;82.60;;;;;;5040502;28;20195;-73
2022/04/24 04:45:10;;;;;;;16.67;10.57;;;13.90;82.70;;;;;;5040977;28;20195;-72
2022/04/24 04:47:38;;;;;;;17.70;10.57;;;13.90;82.70;;;;;;5040405;28;20554;-71
2022/04/24 04:50:07;;;;;;;16.47;10.87;;;13.90;82.70;;;;;;5041131;28;20198;-73
2022/04/24 04:52:36;;;;;;;20.02;11.77;;;14.00;82.70;;;;;;5039711;28;20539;-71
2022/04/24 04:55:05;;;;;;;18.47;11.20;;;14.10;83.60;;;;;;5040571;28;20218;-74
2022/04/24 04:57:34;;;;;;;18.07;11.10;;;14.10;83.50;;;;;;5042992;28;20211;-71
2022/04/24 05:00:07;;;;;;;16.07;10.40;;;14.20;83.40;;;;;;5041508;28;20202;-73
2022/04/24 05:02:37;;;;;;;21.97;11.80;;;14.20;83.20;;;;;;5041155;28;20191;-72
2022/04/24 05:05:07;;;;;;;18.93;11.30;;;14.30;83.20;;;;;;5040217;28;20629;-74
2022/04/24 05:07:36;;;;;;;15.93;10.83;;;14.30;83.00;;;;;;5039921;28;20207;-72
2022/04/24 05:10:06;;;;;;;17.77;10.87;;;14.40;83.10;;;;;;5040389;28;20651;-73
2022/04/24 05:12:35;;;;;;;18.90;10.00;;;14.40;83.10;;;;;;5040765;28;20202;-72
2022/04/24 05:15:07;;;;;;;14.97;9.90;;;14.50;83.00;;;;;;5040883;28;20205;-71
2022/04/24 05:17:37;;;;;;;18.77;10.73;;;14.50;82.90;;;;;;5041404;28;20195;-72
2022/04/24 05:20:07;;;;;;;17.00;10.07;;;14.50;82.90;;;;;;5039978;28;20756;-72
2022/04/24 05:22:35;;;;;;;17.27;9.83;;;14.60;82.90;;;;;;5037527;28;20564;-72
2022/04/24 05:25:04;;;;;;;16.23;9.80;;;14.70;82.80;;;;;;5043915;28;20202;-73
2022/04/24 05:27:32;;;;;;;15.53;9.73;;;14.70;82.70;;;;;;5041800;28;20195;-72
2022/04/24 05:30:00;;;;;;;19.57;9.90;;;14.80;82.70;;;;;;5042625;28;20201;-71
2022/04/24 05:32:30;;;;;;;18.00;9.63;;;14.80;82.70;;;;;;5041347;28;20203;-72
2022/04/24 05:34:58;;;;;;;14.53;9.00;;;14.90;82.70;;;;;;5039441;28;20199;-71
2022/04/24 05:37:27;;;;;;;18.50;10.43;;;15.00;83.00;;;;;;5039253;28;20533;-71
2022/04/24 05:39:55;;;;;;;15.00;9.97;;;15.10;82.80;;;;;;5041529;28;20203;-73
2022/04/24 05:42:23;;;;;;;16.50;9.80;;;15.10;83.00;;;;;;5042807;28;20327;-71
2022/04/24 05:44:53;;;;;;;18.50;10.70;;;15.20;82.70;;;;;;5039336;28;20198;-71
2022/04/24 05:47:21;;;;;;;20.03;10.40;;;15.30;82.80;;;;;;5041105;28;20205;-71
2022/04/24 05:49:51;;;;;;;15.60;10.10;;;15.30;82.90;;;;;;5040323;28;20223;-74
2022/04/24 05:52:20;;;;;;;19.13;11.03;;;15.40;82.90;;;;;;5042342;28;20241;-70
2022/04/24 05:54:48;;;;;;;19.67;11.03;;;15.50;83.00;;;;;;5039830;28;20209;-70
2022/04/24 05:57:16;;;;;;;19.50;11.60;;;15.60;83.00;;;;;;5039977;28;20233;-72
2022/04/24 05:59:45;;;;;;;21.20;11.47;;;15.70;82.90;;;;;;5038825;28;20235;-71
2022/04/24 06:02:13;;;;;;;20.30;11.57;;;15.80;82.90;;;;;;5039655;28;20190;-72
2022/04/24 06:04:42;;;;;;;17.67;11.10;;;15.80;82.60;;;;;;5038148;28;20199;-71
2022/04/24 06:07:12;;;;;;;16.37;10.53;;;15.90;82.60;;;;;;5040315;28;20243;-72
2022/04/24 06:09:41;;;;;;;21.37;11.13;;;16.00;82.60;;;;;;5039691;28;20237;-71
2022/04/24 06:12:10;;;;;;;17.83;10.53;;;16.10;82.50;;;;;;5039455;28;22104;-70
2022/04/24 06:14:40;;;;;;;17.33;10.88;;;16.20;82.40;;;;;;5038273;28;20440;-70
2022/04/24 06:17:09;;;;;;;21.07;10.53;;;16.30;82.40;;;;;;5038977;28;20214;-70
2022/04/24 06:19:37;;;;;;;17.93;11.13;;;16.40;82.10;;;;;;5040410;28;20217;-72
2022/04/24 06:22:06;;;;;;;16.57;10.60;;;16.50;82.00;;;;;;5038793;28;20199;-72
2022/04/24 06:24:36;;;;;;;18.80;11.23;;;16.50;81.70;;;;;;5040092;28;20211;-71
2022/04/24 06:27:05;;;;;;;19.37;10.40;;;16.60;81.50;;;;;;5039685;28;20195;-72
2022/04/24 06:29:34;;;;;;;17.87;10.53;;;16.70;81.40;;;;;;5037767;28;20198;-72
2022/04/24 06:32:04;;;;;;;18.70;11.33;;;16.80;81.40;;;;;;5038583;28;20187;-72
2022/04/24 06:34:32;;;;;;;17.73;11.37;;;16.90;82.20;;;;;;5039063;28;20228;-72
2022/04/24 06:37:00;;;;;;;19.47;11.30;;;17.00;81.30;;;;;;5039535;28;20226;-74
2022/04/24 06:39:29;;;;;;;19.03;10.80;;;17.10;81.00;;;;;;5038582;28;20290;-72
2022/04/24 06:41:58;;;;;;;15.80;10.03;;;17.10;80.70;;;;;;5037475;28;20202;-71
2022/04/24 06:44:27;;;;;;;17.57;10.27;;;17.20;80.60;;;;;;5039776;28;20195;-71
2022/04/24 06:46:55;;;;;;;17.63;9.67;;;17.30;80.50;;;;;;5035429;28;20199;-71
2022/04/24 06:49:24;;;;;;;16.97;10.53;;;17.40;80.40;;;;;;5040041;28;20191;-72
2022/04/24 06:51:52;;;;;;;17.63;10.40;;;17.50;80.40;;;;;;5036854;28;20205;-72
2022/04/24 06:54:20;;;;;;;16.27;9.90;;;17.60;80.20;;;;;;5039643;28;20229;-72
2022/04/24 06:56:49;;;;;;;18.03;9.77;;;17.60;79.80;;;;;;5037936;28;20227;-71
2022/04/24 06:59:19;;;;;;;14.23;8.73;;;17.70;79.70;;;;;;5039996;28;20198;-72
2022/04/24 07:01:47;;;;;;;16.40;9.30;;;17.80;79.30;;;;;;5038104;28;20202;-71
2022/04/24 07:04:17;;;;;;;15.77;9.77;;;17.90;78.80;;;;;;5035718;28;20190;-72
2022/04/24 07:06:46;;;;;;;14.33;9.00;;;18.00;78.30;;;;;;5039809;28;20284;-72
2022/04/24 07:09:14;;;;;;;19.93;9.43;;;18.00;77.80;;;;;;5040193;28;20198;-74
2022/04/24 07:11:43;;;;;;;17.30;10.33;;;18.10;77.70;;;;;;5041088;28;20200;-70
2022/04/24 07:14:11;;;;;;;17.00;10.00;;;18.20;77.70;;;;;;5043711;28;20202;-70
2022/04/24 07:16:41;;;;;;;16.93;9.70;;;18.20;77.50;;;;;;5043200;28;20222;-71
2022/04/24 07:19:10;;;;;;;16.97;8.73;;;18.40;77.80;;;;;;5042865;28;20209;-71
2022/04/24 07:21:38;;;;;;;14.57;7.83;;;18.50;77.70;;;;;;5040590;28;20206;-71
2022/04/24 07:24:07;;;;;;;12.50;7.93;;;18.60;77.40;;;;;;5038782;28;20553;-72
2022/04/24 07:26:35;;;;;;;13.97;8.20;;;18.60;76.90;;;;;;5038859;28;20190;-71
2022/04/24 07:29:04;;;;;;;15.53;8.73;;;18.70;76.60;;;;;;5040291;28;20203;-70
2022/04/24 07:31:32;;;;;;;14.43;8.10;;;18.80;76.40;;;;;;5037797;28;20194;-71
2022/04/24 07:34:02;;;;;;;14.73;8.37;;;18.90;76.00;;;;;;5039597;28;20203;-71
2022/04/24 07:36:31;;;;;;;15.17;7.90;;;19.00;75.40;;;;;;5038373;28;20226;-71
2022/04/24 07:38:59;;;;;;;10.03;6.37;;;19.10;75.40;;;;;;5038764;28;20193;-73
2022/04/24 07:41:28;;;;;;;10.77;6.27;;;19.20;75.10;;;;;;5036422;28;20203;-71
2022/04/24 07:43:56;;;;;;;10.63;6.00;;;19.30;74.80;;;;;;5039445;28;20202;-72
2022/04/24 07:46:24;;;;;;;9.87;6.07;;;19.40;74.20;;;;;;5038745;28;20260;-71
2022/04/24 07:48:53;;;;;;;10.17;5.87;;;19.40;73.60;;;;;;5038834;28;20233;-71
2022/04/24 07:51:23;;;;;;;8.93;5.17;;;19.50;73.30;;;;;;5037129;28;20731;-72
2022/04/24 07:53:51;;;;;;;8.37;5.37;;;19.60;72.30;;;;;;5034995;28;20207;-71
2022/04/24 07:56:19;;;;;;;11.83;6.30;;;19.60;72.20;;;;;;5038801;28;20194;-73
2022/04/24 07:58:48;;;;;;;9.07;5.47;;;19.70;72.10;;;;;;5041354;28;20203;-74
2022/04/24 08:01:17;;;;;;;8.37;5.43;;;19.80;71.50;;;;;;5044781;28;20576;-72
2022/04/24 08:03:46;;;;;;;9.93;5.33;;;19.90;71.40;;;;;;5043322;28;20990;-72
2022/04/24 08:06:15;;;;;;;8.37;5.20;;;19.90;71.50;;;;;;5038557;28;20290;-72
2022/04/24 08:08:45;;;;;;;6.80;4.33;;;20.00;71.10;;;;;;5042285;28;20336;-71
2022/04/24 08:11:13;;;;;;;6.77;4.17;;;20.10;71.20;;;;;;5041237;28;20213;-72
2022/04/24 08:13:44;;;;;;;5.80;3.13;;;20.10;70.10;;;;;;5040281;28;20197;-72
2022/04/24 08:16:13;;;;;;;7.00;3.30;;;20.20;70.00;;;;;;5043218;28;20186;-71
2022/04/24 08:18:41;;;;;;;4.22;2.70;;;20.30;69.30;;;;;;5041749;28;20218;-72
2022/04/24 08:21:10;;;;;;;4.07;2.60;;;20.40;68.70;;;;;;5042569;28;20202;-73
2022/04/24 08:23:38;;;;;;;4.30;2.63;;;20.50;67.70;;;;;;5039304;28;20221;-72
2022/04/24 08:26:08;;;;;;;6.45;3.53;;;20.50;66.90;;;;;;5043004;28;20195;-72
2022/04/24 08:28:36;;;;;;;10.40;4.13;;;20.60;67.50;;;;;;5040581;28;20218;-72
2022/04/24 08:31:04;;;;;;;5.90;3.42;;;20.60;67.00;;;;;;5039109;28;20196;-73
2022/04/24 08:33:34;;;;;;;6.05;3.40;;;20.70;67.20;;;;;;5041253;28;20206;-73
2022/04/24 08:36:02;;;;;;;5.90;3.50;;;20.80;67.10;;;;;;5042056;28;20651;-71
2022/04/24 08:38:30;;;;;;;5.65;3.20;;;20.80;66.30;;;;;;5041121;28;20214;-72
2022/04/24 08:41:01;;;;;;;5.90;3.15;;;20.90;65.70;;;;;;5038644;28;20995;-73
2022/04/24 08:43:33;;;;;;;8.60;4.25;;;20.90;65.50;;;;;;5041047;28;20199;-72
2022/04/24 08:46:03;;;;;;;5.30;3.83;;;21.10;66.00;;;;;;5040111;28;20198;-72
2022/04/24 08:48:32;;;;;;;6.22;3.63;;;21.10;66.10;;;;;;5040983;28;20194;-71
2022/04/24 08:51:02;;;;;;;8.65;3.83;;;21.20;65.80;;;;;;5041495;28;20194;-72
2022/04/24 08:53:31;;;;;;;5.93;3.35;;;21.30;65.80;;;;;;5036210;28;20849;-75
2022/04/24 08:55:59;;;;;;;5.75;3.25;;;21.30;64.10;;;;;;5042686;28;20190;-74
2022/04/24 08:58:28;;;;;;;5.72;3.28;;;21.40;64.20;;;;;;5039951;28;20222;-73
2022/04/24 09:00:57;;;;;;;5.72;3.13;;;21.50;64.40;;;;;;5040354;28;20199;-74
2022/04/24 09:03:26;;;;;;;7.65;3.63;;;21.50;64.30;;;;;;5037858;28;20675;-73
2022/04/24 09:05:54;;;;;;;6.57;3.83;;;21.60;64.40;;;;;;5043229;28;20210;-75
2022/04/24 09:08:25;;;;;;;6.53;3.53;;;21.60;64.60;;;;;;5040887;28;20182;-73
2022/04/24 09:11:13;;;;;;;6.38;3.33;;;21.70;64.60;;;;;;5040293;28;20200;-73
2022/04/24 09:16:35;;;;;;;7.70;3.63;;;21.90;64.10;;;;;;5041315;28;20191;-75
2022/04/24 09:19:05;;;;;;;4.30;3.20;;;22.00;63.70;;;;;;5041892;28;20202;-73
2022/04/24 09:21:33;;;;;;;6.00;3.67;;;22.00;61.90;;;;;;5038621;28;20191;-72
2022/04/24 09:24:02;;;;;;;5.72;3.38;;;22.10;61.60;;;;;;5038675;28;20198;-72
2022/04/24 09:26:30;;;;;;;6.40;3.30;;;22.20;62.40;;;;;;5036897;28;20796;-73
2022/04/24 09:29:14;;;;;;;9.00;3.22;;;22.30;62.50;;;;;;5041756;28;20456;-72
2022/04/24 09:31:47;;;;;;;4.88;2.90;;;22.30;61.80;;;;;;5042467;28;20202;-74
2022/04/24 09:34:18;;;;;;;4.78;3.22;;;22.40;61.90;;;;;;5039216;28;20190;-73
2022/04/24 09:36:46;;;;;;;8.45;2.10;;;22.50;62.10;;;;;;5040383;28;20187;-73
2022/04/24 09:39:15;;;;;;;5.00;2.70;;;22.50;61.60;;;;;;5038403;28;20226;-73
2022/04/24 09:41:44;;;;;;;4.50;2.63;;;22.60;61.60;;;;;;5039438;28;20214;-73
2022/04/24 09:44:14;;;;;;;4.13;2.67;;;22.70;61.10;;;;;;5038622;28;20198;-72
2022/04/24 09:46:43;;;;;;;5.20;2.75;;;22.80;60.30;;;;;;5038296;28;20190;-73
2022/04/24 09:49:14;;;;;;;4.40;2.65;;;22.80;59.80;;;;;;5038668;28;20220;-73
2022/04/24 09:51:43;;;;;;;4.45;2.45;;;22.90;59.80;;;;;;5038219;28;20215;-74
2022/04/24 09:54:12;;;;;;;4.97;2.40;;;23.00;59.90;;;;;;5041179;28;21118;-73
2022/04/24 09:56:41;;;;;;;4.05;2.40;;;23.00;58.80;;;;;;5038224;28;20217;-75
2022/04/24 09:59:11;;;;;;;3.65;2.20;;;23.10;59.40;;;;;;5039471;28;20222;-74
2022/04/24 10:01:40;;;;;;;3.55;2.17;;;23.20;59.20;;;;;;5040541;28;20195;-75
2022/04/24 10:04:09;;;;;;;2.38;1.50;;;23.30;59.40;;;;;;5039114;28;20199;-74
2022/04/24 10:06:42;;;;;;;2.78;1.50;;;23.30;58.30;;;;;;5040823;28;20199;-74
2022/04/24 10:09:13;;;;;;;5.88;1.98;;;23.40;58.20;;;;;;5035542;28;20191;-74
2022/04/24 10:11:42;;;;;;;2.38;1.75;;;23.40;57.90;;;;;;5039580;28;20200;-74
2022/04/24 10:14:15;;;;;;;2.40;1.48;;;23.50;57.60;;;;;;5039546;28;20206;-73
2022/04/24 10:17:10;;;;;;;4.75;1.63;;;23.50;57.60;;;;;;5038887;28;20204;-74
2022/04/24 10:19:55;;;;;;;3.47;1.92;;;23.60;57.90;;;;;;5039847;28;20204;-73
2022/04/24 10:22:36;;;;;;;3.58;2.00;;;23.70;57.60;;;;;;5038900;28;20199;-74
2022/04/24 10:25:06;;;;;;;5.78;1.80;;;23.70;56.50;;;;;;5036625;28;20281;-74
2022/04/24 10:27:42;;;;;;;2.95;1.67;;;23.80;56.50;;;;;;5038537;28;20274;-75
2022/04/24 10:30:14;;;;;;;3.22;1.67;;;23.80;56.60;;;;;;5040068;28;20841;-73
2022/04/24 10:32:45;;;;;;;2.47;1.30;;;23.90;57.00;;;;;;5037943;28;20194;-73
2022/04/24 10:35:26;;;;;;;3.08;1.42;;;24.00;56.40;;;;;;5037439;28;20205;-74
2022/04/24 10:38:09;;;;;;;3.97;1.50;;;24.00;55.80;;;;;;5021274;28;20837;-73
2022/04/24 10:40:39;;;;;;;3.65;1.60;;;24.10;55.50;;;;;;5041118;28;20197;-74
2022/04/24 10:43:08;;;;;;;6.30;1.95;;;24.10;55.80;;;;;;5040948;28;20199;-73
2022/04/24 10:45:46;;;;;;;2.88;1.65;;;24.20;55.80;;;;;;5039549;28;20244;-74
2022/04/24 10:48:19;;;;;;;4.05;1.92;;;24.30;56.30;;;;;;5040394;28;20880;-73
2022/04/24 10:50:48;;;;;;;2.05;1.40;;;24.40;56.30;;;;;;5040154;28;20189;-74
2022/04/24 10:53:18;;;;;;;3.20;1.30;;;24.50;55.80;;;;;;5021204;28;20702;-76
2022/04/24 10:55:47;;;;;;;4.20;1.25;;;24.60;55.40;;;;;;5038462;28;20192;-74
2022/04/24 10:58:27;;;;;;;3.03;1.40;;;24.60;55.80;;;;;;5039040;28;20252;-75
2022/04/24 11:00:55;;;;;;;2.65;1.65;;;24.70;55.10;;;;;;5039585;28;20190;-74
2022/04/24 11:03:41;;;;;;;2.88;1.15;;;24.70;53.50;;;;;;5037236;28;20713;-73
2022/04/24 11:06:21;;;;;;;2.83;1.27;;;24.70;53.60;;;;;;5039697;28;20193;-73
2022/04/24 11:08:51;;;;;;;2.08;1.25;;;24.80;53.60;;;;;;5038500;28;20205;-74
2022/04/24 11:11:20;;;;;;;5.20;1.48;;;24.80;53.30;;;;;;5041110;28;20198;-76
2022/04/24 11:13:49;;;;;;;2.97;1.38;;;24.80;53.70;;;;;;5038919;28;20194;-74
2022/04/24 11:16:17;;;;;;;3.90;1.20;;;24.90;53.60;;;;;;5036649;28;20923;-74
2022/04/24 11:18:47;;;;;;;4.47;2.10;;;25.00;53.60;;;;;;5038245;28;20254;-76
2022/04/24 11:21:19;;;;;;;3.00;1.50;;;25.00;53.00;;;;;;5039222;28;20656;-74
2022/04/24 11:23:48;;;;;;;3.22;1.50;;;25.10;53.00;;;;;;5037520;28;20187;-74
2022/04/24 11:26:18;;;;;;;6.32;1.65;;;25.20;53.50;;;;;;5038342;28;20199;-72
2022/04/24 11:28:49;;;;;;;3.58;2.22;;;25.30;53.60;;;;;;5036555;28;20512;-76
2022/04/24 11:31:19;;;;;;;2.65;1.38;;;25.30;52.90;;;;;;5039850;28;20192;-72
2022/04/24 11:33:53;;;;;;;1.90;1.42;;;25.40;53.10;;;;;;5042519;28;20260;-72
2022/04/24 11:36:22;;;;;;;2.47;1.33;;;25.50;53.10;;;;;;5043491;28;20210;-72
2022/04/24 11:38:51;;;;;;;2.60;1.30;;;25.60;52.90;;;;;;5042512;28;20711;-73
2022/04/24 11:41:21;;;;;;;2.13;1.13;;;25.60;52.70;;;;;;5045246;28;20194;-73
2022/04/24 11:43:50;;;;;;;5.05;1.58;;;25.60;52.50;;;;;;5041666;28;20209;-73
2022/04/24 11:51:53;;;;;;;2.28;1.50;;;25.70;52.20;;;;;;5042557;28;20205;-72
2022/04/24 11:54:22;;;;;;;2.65;1.40;;;25.80;52.50;;;;;;5042132;28;20226;-74
2022/04/24 11:56:53;;;;;;;2.80;1.40;;;25.80;52.80;;;;;;5044388;28;20196;-74
2022/04/24 11:59:22;;;;;;;4.85;1.40;;;25.90;53.10;;;;;;5044128;28;20210;-73
2022/04/24 12:01:59;;;;;;;2.88;1.63;;;25.90;53.40;;;;;;5040211;28;20202;-71
2022/04/24 12:04:31;;;;;;;3.72;1.70;;;26.00;53.20;;;;;;5042783;28;20201;-73
2022/04/24 12:07:05;;;;;;;4.75;1.45;;;26.10;53.30;;;;;;5041841;28;20218;-71
2022/04/24 12:09:34;;;;;;;2.25;1.42;;;26.10;52.00;;;;;;5041770;28;20201;-74
2022/04/24 12:12:13;;;;;;;5.82;1.70;;;26.20;52.20;;;;;;5043968;28;20587;-73
2022/04/24 12:14:42;;;;;;;3.05;1.75;;;26.20;52.40;;;;;;5042451;28;20194;-72
2022/04/24 12:17:12;;;;;;;2.85;1.77;;;26.20;51.60;;;;;;5042780;28;21695;-74
2022/04/24 12:19:42;;;;;;;1.67;1.27;;;26.30;51.60;;;;;;5043278;28;20753;-72
2022/04/24 12:22:12;;;;;;;4.35;1.50;;;26.30;51.60;;;;;;5043078;28;20190;-73
2022/04/24 12:24:44;;;;;;;6.45;2.40;;;26.40;51.80;;;;;;5042623;28;20198;-74
2022/04/24 12:27:15;;;;;;;4.53;2.30;;;26.50;51.90;;;;;;5044291;28;20284;-73
2022/04/24 12:29:48;;;;;;;2.65;1.30;;;26.50;51.90;;;;;;5043563;28;20191;-72
2022/04/24 12:32:17;;;;;;;3.05;1.23;;;26.50;51.50;;;;;;5041500;28;20895;-74
2022/04/24 12:34:47;;;;;;;3.22;1.20;;;26.50;50.90;;;;;;5040798;28;20206;-74
2022/04/24 12:37:28;;;;;;;2.28;0.95;;;26.50;50.00;;;;;;5041329;28;20217;-74
2022/04/24 12:39:57;;;;;;;7.80;4.07;;;26.50;48.00;;;;;;5040992;28;20221;-74
2022/04/24 12:42:27;;;;;;;5.82;2.88;;;26.50;48.40;;;;;;5039575;28;20195;-74
2022/04/24 12:44:56;;;;;;;11.45;6.53;;;26.50;48.60;;;;;;5042050;28;20199;-74
2022/04/24 12:47:25;;;;;;;5.38;2.45;;;26.50;48.50;;;;;;5039579;28;20198;-74
2022/04/24 12:49:54;;;;;;;6.03;3.25;;;26.50;48.60;;;;;;5040156;28;20195;-75
2022/04/24 12:52:23;;;;;;;7.25;3.47;;;26.50;48.20;;;;;;5040340;28;20804;-75
2022/04/24 12:54:52;;;;;;;2.65;1.08;;;26.60;48.40;;;;;;5038017;28;20825;-74
2022/04/24 12:57:21;;;;;;;2.03;0.90;;;26.60;47.80;;;;;;5039407;28;20194;-74
2022/04/24 12:59:50;;;;;;;2.03;1.10;;;26.70;47.80;;;;;;5037240;28;20226;-74